createdAt,value
2023-05-15T00:02:44.906Z,7.70
2023-05-15T00:07:46.671Z,5.70
2023-05-15T00:12:48.194Z,5.30
2023-05-15T00:17:49.739Z,7.50
2023-05-15T00:22:51.386Z,5.80
2023-05-15T00:27:52.965Z,7.30
2023-05-15T00:32:54.791Z,7.10
2023-05-15T00:37:57.580Z,5.80
2023-05-15T00:43:00.761Z,5.40
2023-05-15T00:48:03.717Z,5.20
2023-05-15T00:58:08.422Z,6.20
2023-05-15T01:03:10.091Z,6.90
2023-05-15T01:08:14.585Z,6.50
2023-05-15T01:13:16.955Z,5.80
2023-05-15T01:18:18.586Z,4.70
2023-05-15T01:23:52.055Z,6.00
2023-05-15T01:29:03.530Z,5.60
2023-05-15T01:34:09.904Z,6.30
2023-05-15T01:39:13.002Z,4.90
2023-05-15T01:49:27.739Z,4.10
2023-05-15T01:54:31.109Z,6.50
2023-05-15T01:59:34.704Z,4.50
2023-05-15T02:04:38.390Z,5.20
2023-05-15T02:09:41.340Z,4.90
2023-05-15T02:14:44.081Z,5.30
2023-05-15T02:19:45.762Z,5.90
2023-05-15T02:24:47.244Z,4.80
2023-05-15T02:30:04.543Z,4.90
2023-05-15T02:35:35.743Z,4.20
2023-05-15T02:40:37.860Z,4.10
2023-05-15T02:45:40.911Z,4.40
2023-05-15T02:50:43.667Z,4.80
2023-05-15T02:55:45.345Z,4.10
2023-05-15T03:00:46.957Z,5.50
2023-05-15T03:05:48.444Z,4.30
2023-05-15T03:10:49.964Z,7.70
2023-05-15T03:15:52.992Z,5.90
2023-05-15T03:25:56.750Z,5.30
2023-05-15T03:30:58.395Z,6.30
2023-05-15T03:36:00.164Z,6.80
2023-05-15T03:41:01.726Z,6.60
2023-05-15T03:46:03.879Z,6.60
2023-05-15T03:51:06.536Z,4.40
2023-05-15T03:56:08.080Z,7.30
2023-05-15T04:01:09.728Z,8.30
2023-05-15T04:06:11.207Z,5.20
2023-05-15T04:11:12.974Z,6.80
2023-05-15T04:16:14.883Z,5.20
2023-05-15T04:21:16.426Z,7.30
2023-05-15T04:26:18.533Z,6.50
2023-05-15T04:31:21.114Z,8.10
2023-05-15T04:36:23.002Z,6.20
2023-05-15T04:41:24.811Z,10.50
2023-05-15T04:46:26.559Z,6.40
2023-05-15T04:51:28.233Z,11.60
2023-05-15T04:56:29.738Z,8.20
2023-05-15T05:01:31.284Z,5.00
2023-05-15T05:06:32.941Z,6.20
2023-05-15T05:11:34.424Z,6.20
2023-05-15T05:16:36.647Z,9.70
2023-05-15T05:21:38.256Z,6.60
2023-05-15T05:26:39.801Z,7.10
2023-05-15T05:31:41.603Z,7.50
2023-05-15T05:36:43.220Z,7.00
2023-05-15T05:41:45.212Z,8.10
2023-05-15T05:46:46.779Z,7.50
2023-05-15T05:51:48.367Z,6.90
2023-05-15T05:56:49.998Z,5.20
2023-05-15T06:01:51.515Z,6.50
2023-05-15T06:06:53.841Z,7.10
2023-05-15T06:11:55.334Z,5.60
2023-05-15T06:16:56.878Z,10.60
2023-05-15T06:21:58.544Z,8.70
2023-05-15T06:27:00.232Z,16.20
2023-05-15T06:32:01.750Z,11.50
2023-05-15T06:37:03.273Z,14.70
2023-05-15T06:42:05.180Z,11.10
2023-05-15T06:47:07.411Z,16.00
2023-05-15T06:52:09.062Z,17.50
2023-05-15T06:57:10.532Z,9.70
2023-05-15T07:02:12.105Z,9.80
2023-05-15T07:07:14.344Z,10.90
2023-05-15T07:12:16.066Z,8.40
2023-05-15T07:17:19.334Z,8.60
2023-05-15T07:22:20.986Z,7.80
2023-05-15T07:27:22.712Z,7.70
2023-05-15T07:32:24.308Z,7.40
2023-05-15T07:37:26.147Z,12.90
2023-05-15T07:42:27.657Z,10.00
2023-05-15T07:47:29.272Z,7.30
2023-05-15T07:52:31.279Z,10.10
2023-05-15T07:57:32.968Z,12.10
2023-05-15T08:02:34.462Z,10.80
2023-05-15T08:07:36.211Z,7.70
2023-05-15T08:12:37.905Z,7.80
2023-05-15T08:17:39.592Z,7.80
2023-05-15T08:22:41.452Z,11.40
2023-05-15T08:27:42.937Z,8.70
2023-05-15T08:32:49.031Z,9.20
2023-05-15T08:37:50.737Z,9.00
2023-05-15T08:42:58.829Z,8.40
2023-05-15T08:48:02.114Z,10.90
2023-05-15T08:53:04.320Z,13.20
2023-05-15T08:58:06.590Z,11.50
2023-05-15T09:03:14.892Z,12.80
2023-05-15T09:08:18.535Z,8.10
2023-05-15T09:13:20.073Z,10.60
2023-05-15T09:18:22.313Z,11.80
2023-05-15T09:23:26.584Z,13.90
2023-05-15T09:28:30.626Z,11.70
2023-05-15T09:33:37.802Z,11.30
2023-05-15T09:38:43.752Z,13.40
2023-05-15T09:43:45.289Z,8.80
2023-05-15T09:48:47.075Z,11.80
2023-05-15T09:53:52.888Z,9.70
2023-05-15T09:58:56.673Z,11.00
2023-05-15T10:03:59.826Z,12.20
2023-05-15T10:09:02.594Z,9.60
2023-05-15T10:14:09.433Z,10.90
2023-05-15T10:19:12.968Z,9.20
2023-05-15T10:24:17.065Z,11.90
2023-05-15T10:29:21.304Z,9.00
2023-05-15T10:34:24.055Z,7.50
2023-05-15T10:39:29.171Z,9.20
2023-05-15T10:44:30.791Z,11.70
2023-05-15T10:49:32.630Z,11.40
2023-05-15T10:54:34.383Z,9.80
2023-05-15T10:59:36.313Z,9.00
2023-05-15T11:04:37.941Z,14.00
2023-05-15T11:09:40.254Z,11.20
2023-05-15T11:15:11.011Z,9.90
2023-05-15T11:20:12.546Z,12.20
2023-05-15T11:25:16.227Z,11.20
2023-05-15T11:30:20.625Z,9.60
2023-05-15T11:35:35.386Z,12.10
2023-05-15T11:41:03.091Z,10.10
2023-05-15T11:46:07.516Z,11.30
2023-05-15T11:51:20.107Z,11.80
2023-05-15T11:56:24.526Z,13.10
2023-05-15T12:01:26.661Z,10.40
2023-05-15T12:06:28.175Z,12.50
2023-05-15T12:11:32.232Z,12.00
2023-05-15T12:16:33.825Z,10.20
2023-05-15T12:21:37.219Z,11.40
2023-05-15T12:26:40.558Z,11.60
2023-05-15T12:31:42.563Z,12.80
2023-05-15T12:36:45.428Z,12.60
2023-05-15T12:41:47.881Z,10.60
2023-05-15T12:46:54.595Z,10.90
2023-05-15T12:51:56.325Z,8.90
2023-05-15T12:56:58.926Z,12.60
2023-05-15T13:02:01.999Z,11.90
2023-05-15T13:07:04.475Z,18.00
2023-05-15T13:12:07.710Z,14.00
2023-05-15T13:17:09.198Z,11.80
2023-05-15T13:22:10.686Z,12.30
2023-05-15T13:27:12.398Z,12.60
2023-05-15T13:32:14.484Z,12.40
2023-05-15T13:37:15.992Z,12.60
2023-05-15T13:42:17.497Z,13.50
2023-05-15T13:47:19.027Z,15.70
2023-05-15T13:52:21.146Z,11.60
2023-05-15T13:57:22.836Z,12.10
2023-05-15T14:02:28.863Z,12.90
2023-05-15T14:07:31.828Z,12.30
2023-05-15T14:12:34.234Z,13.30
2023-05-15T14:17:35.805Z,13.90
2023-05-15T14:22:38.020Z,13.60
2023-05-15T14:27:39.660Z,12.90
2023-05-15T14:32:41.639Z,11.50
2023-05-15T14:37:43.521Z,12.30
2023-05-15T14:42:46.443Z,11.50
2023-05-15T14:47:48.033Z,14.10
2023-05-15T14:52:49.671Z,13.60
2023-05-15T14:57:51.198Z,13.30
2023-05-15T15:02:52.939Z,13.80
2023-05-15T15:08:06.226Z,12.80
2023-05-15T15:13:10.074Z,16.50
2023-05-15T15:18:11.606Z,17.90
2023-05-15T15:23:13.408Z,18.40
2023-05-15T15:28:15.000Z,24.00
2023-05-15T15:33:16.618Z,24.40
2023-05-15T15:38:18.325Z,18.00
2023-05-15T15:43:19.997Z,27.40
2023-05-15T15:48:21.616Z,13.40
2023-05-15T15:53:23.197Z,13.00
2023-05-15T15:58:24.962Z,11.20
2023-05-15T16:03:26.569Z,10.30
2023-05-15T16:08:28.511Z,10.80
2023-05-15T16:13:30.326Z,11.30
2023-05-15T16:18:31.910Z,14.60
2023-05-15T16:23:35.179Z,23.60
2023-05-15T16:28:37.228Z,12.00
2023-05-15T16:33:38.901Z,12.20
2023-05-15T16:38:40.571Z,10.50
2023-05-15T16:43:42.262Z,16.50
2023-05-15T16:48:46.633Z,16.90
2023-05-15T16:53:48.167Z,13.50
2023-05-15T16:58:50.947Z,22.80
2023-05-15T17:03:52.765Z,25.40
2023-05-15T17:08:54.487Z,26.20
2023-05-15T17:13:55.972Z,17.10
2023-05-15T17:18:57.523Z,16.50
2023-05-15T17:23:59.396Z,13.40
2023-05-15T17:29:01.338Z,15.60
2023-05-15T17:34:03.465Z,15.50
2023-05-15T17:39:05.006Z,14.10
2023-05-15T17:44:06.888Z,16.60
2023-05-15T17:49:08.437Z,13.00
2023-05-15T17:54:09.984Z,15.40
2023-05-15T17:59:11.669Z,14.90
2023-05-15T18:04:13.282Z,13.30
2023-05-15T18:09:15.208Z,14.20
2023-05-15T18:14:16.869Z,18.00
2023-05-15T18:19:18.587Z,14.00
2023-05-15T18:24:20.240Z,18.30
2023-05-15T18:29:21.782Z,15.90
2023-05-15T18:34:23.353Z,12.70
2023-05-15T18:39:24.843Z,16.00
2023-05-15T18:44:26.667Z,21.50
2023-05-15T18:49:29.679Z,12.50
2023-05-15T18:54:31.215Z,15.10
2023-05-15T18:59:32.718Z,14.10
2023-05-15T19:04:34.190Z,24.10
2023-05-15T19:09:35.951Z,13.80
2023-05-15T19:14:37.710Z,15.10
2023-05-15T19:19:39.185Z,21.40
2023-05-15T19:24:40.969Z,25.00
2023-05-15T19:29:42.996Z,19.10
2023-05-15T19:34:44.608Z,18.90
2023-05-15T19:39:46.095Z,19.40
2023-05-15T19:44:47.634Z,17.50
2023-05-15T19:49:49.156Z,16.90
2023-05-15T19:54:50.718Z,20.60
2023-05-15T19:59:52.231Z,15.80
2023-05-15T20:04:54.779Z,10.30
2023-05-15T20:09:56.446Z,11.40
2023-05-15T20:14:57.922Z,9.80
2023-05-15T20:19:59.963Z,10.60
2023-05-15T20:25:04.267Z,13.00
2023-05-15T20:30:07.025Z,11.50
2023-05-15T20:35:09.939Z,10.90
2023-05-15T20:40:12.836Z,10.00
2023-05-15T20:45:14.726Z,11.60
2023-05-15T20:50:16.700Z,18.70
2023-05-15T20:55:20.439Z,19.50
2023-05-15T21:00:22.929Z,21.00
2023-05-15T21:05:24.657Z,25.30
2023-05-15T21:10:26.418Z,18.60
2023-05-15T21:15:28.159Z,12.70
2023-05-15T21:20:29.818Z,8.60
2023-05-15T21:25:33.312Z,8.80
2023-05-15T21:30:34.825Z,10.10
2023-05-15T21:35:36.307Z,9.90
2023-05-15T21:40:37.802Z,9.90
2023-05-15T21:45:39.366Z,10.60
2023-05-15T21:50:41.205Z,11.50
2023-05-15T21:55:44.289Z,10.40
2023-05-15T22:00:47.264Z,8.30
2023-05-15T22:05:50.185Z,9.20
2023-05-15T22:10:53.562Z,7.10
2023-05-15T22:15:55.247Z,7.20
2023-05-15T22:20:57.580Z,7.40
2023-05-15T22:25:59.108Z,6.00
2023-05-15T22:31:00.910Z,8.20
2023-05-15T22:36:02.972Z,7.10
2023-05-15T22:41:04.831Z,6.90
2023-05-15T22:46:06.392Z,6.40
2023-05-15T22:51:08.617Z,7.70
2023-05-15T22:56:10.106Z,7.20
2023-05-15T23:01:11.902Z,6.60
2023-05-15T23:06:17.926Z,6.00
2023-05-15T23:11:21.438Z,6.70
2023-05-15T23:16:23.372Z,7.40
2023-05-15T23:21:25.386Z,5.90
2023-05-15T23:26:27.317Z,7.50
2023-05-15T23:31:29.024Z,7.20
2023-05-15T23:36:30.744Z,8.20
2023-05-15T23:41:32.369Z,8.00
2023-05-15T23:46:35.597Z,7.20
2023-05-15T23:51:37.207Z,6.60
2023-05-15T23:56:38.708Z,7.50
